This is the latest recevied weather packets stored in our database for station/object DB0PDF-L4. If no packets are shown the sender has not sent any weather packets the latest 1 day(s).
| Time | Temp. | Humidity | Pressure | Rain* | Wind** | Luminosity | Snow |
|---|---|---|---|---|---|---|---|
| 1777760765 | 18.89° C | 63% | 1005 hPa | - | - | - | - |
| 1777759864 | 18.33° C | 64% | 1006 hPa | - | - | - | - |
| 1777758963 | 18.89° C | 59% | 1006 hPa | - | - | - | - |
| 1777758062 | 19.44° C | 52% | 1006 hPa | - | - | - | - |
| 1777757161 | 20.56° C | 47% | 1006 hPa | - | - | - | - |
| 1777756260 | 20.56° C | 46% | 1005 hPa | - | - | - | - |
| 1777755359 | 21.11° C | 45% | 1005 hPa | - | - | - | - |
| 1777754458 | 21.67° C | 43% | 1005 hPa | - | - | - | - |
| 1777753557 | 21.67° C | 42% | 1005 hPa | - | - | - | - |
| 1777752656 | 22.22° C | 40% | 1005 hPa | - | - | - | - |
| 1777751754 | 22.78° C | 39% | 1005 hPa | - | - | - | - |
| 1777750853 | 23.33° C | 37% | 1005 hPa | - | - | - | - |
| 1777749952 | 23.89° C | 36% | 1005 hPa | - | - | - | - |
| 1777749051 | 25° C | 34% | 1005 hPa | - | - | - | - |
| 1777748150 | 26.11° C | 32% | 1005 hPa | - | - | - | - |
| 1777747249 | 27.22° C | 30% | 1005 hPa | - | - | - | - |
| 1777746348 | 28.33° C | 27% | 1004 hPa | - | - | - | - |
| 1777745447 | 28.89° C | 26% | 1004 hPa | - | - | - | - |
| 1777744546 | 29.44° C | 26% | 1005 hPa | - | - | - | - |
| 1777743644 | 29.44° C | 25% | 1005 hPa | - | - | - | - |
| 1777742743 | 29.44° C | 26% | 1005 hPa | - | - | - | - |
| 1777741842 | 30° C | 25% | 1005 hPa | - | - | - | - |
| 1777740941 | 30° C | 25% | 1005 hPa | - | - | - | - |
| 1777740040 | 30.56° C | 24% | 1005 hPa | - | - | - | - |
| 1777739139 | 31.11° C | 23% | 1005 hPa | - | - | - | - |
* Rain since midnight (hover to see other rain measurements)
** Current wind speed in m/s (hover to see current wind gust speed)